sensor_id;sensor_type;location;lat;lon;timestamp;P1;durP1;ratioP1;P2;durP2;ratioP2
9117;SDS011;4594;50.994;7.126;2023-05-07T00:01:46;2.17;;;2.07;;
9117;SDS011;4594;50.994;7.126;2023-05-07T00:04:11;2.43;;;2.33;;
9117;SDS011;4594;50.994;7.126;2023-05-07T00:06:38;2.80;;;2.30;;
9117;SDS011;4594;50.994;7.126;2023-05-07T00:09:04;2.47;;;2.37;;
9117;SDS011;4594;50.994;7.126;2023-05-07T00:11:31;2.43;;;2.40;;
9117;SDS011;4594;50.994;7.126;2023-05-07T00:13:58;2.33;;;2.10;;
9117;SDS011;4594;50.994;7.126;2023-05-07T00:16:24;2.40;;;2.30;;
9117;SDS011;4594;50.994;7.126;2023-05-07T00:18:49;2.13;;;2.13;;
9117;SDS011;4594;50.994;7.126;2023-05-07T00:21:15;5.47;;;2.30;;
9117;SDS011;4594;50.994;7.126;2023-05-07T00:23:41;2.20;;;2.10;;
9117;SDS011;4594;50.994;7.126;2023-05-07T00:26:07;2.03;;;2.03;;
9117;SDS011;4594;50.994;7.126;2023-05-07T00:28:32;2.67;;;2.47;;
9117;SDS011;4594;50.994;7.126;2023-05-07T00:30:58;2.50;;;2.40;;
9117;SDS011;4594;50.994;7.126;2023-05-07T00:33:24;2.50;;;1.93;;
9117;SDS011;4594;50.994;7.126;2023-05-07T00:35:51;2.47;;;2.00;;
9117;SDS011;4594;50.994;7.126;2023-05-07T00:38:19;2.20;;;2.10;;
9117;SDS011;4594;50.994;7.126;2023-05-07T00:40:45;2.10;;;2.00;;
9117;SDS011;4594;50.994;7.126;2023-05-07T00:43:11;2.10;;;2.00;;
9117;SDS011;4594;50.994;7.126;2023-05-07T00:45:37;2.37;;;2.23;;
9117;SDS011;4594;50.994;7.126;2023-05-07T00:48:04;2.33;;;2.17;;
9117;SDS011;4594;50.994;7.126;2023-05-07T00:50:30;2.17;;;2.07;;
9117;SDS011;4594;50.994;7.126;2023-05-07T00:52:57;2.10;;;2.00;;
9117;SDS011;4594;50.994;7.126;2023-05-07T00:55:25;2.10;;;2.00;;
9117;SDS011;4594;50.994;7.126;2023-05-07T00:57:50;2.67;;;2.33;;
9117;SDS011;4594;50.994;7.126;2023-05-07T01:00:17;2.30;;;2.10;;
9117;SDS011;4594;50.994;7.126;2023-05-07T01:02:44;2.53;;;2.40;;
9117;SDS011;4594;50.994;7.126;2023-05-07T01:05:12;2.53;;;2.33;;
9117;SDS011;4594;50.994;7.126;2023-05-07T01:07:41;2.43;;;2.20;;
9117;SDS011;4594;50.994;7.126;2023-05-07T01:10:08;2.00;;;1.93;;
9117;SDS011;4594;50.994;7.126;2023-05-07T01:12:35;1.93;;;1.93;;
9117;SDS011;4594;50.994;7.126;2023-05-07T01:15:04;2.47;;;2.37;;
9117;SDS011;4594;50.994;7.126;2023-05-07T01:17:35;3.40;;;2.10;;
9117;SDS011;4594;50.994;7.126;2023-05-07T01:20:04;1.90;;;1.90;;
9117;SDS011;4594;50.994;7.126;2023-05-07T01:22:35;2.60;;;2.23;;
9117;SDS011;4594;50.994;7.126;2023-05-07T01:25:03;2.93;;;2.20;;
9117;SDS011;4594;50.994;7.126;2023-05-07T01:27:30;2.20;;;2.10;;
9117;SDS011;4594;50.994;7.126;2023-05-07T01:29:58;1.90;;;1.80;;
9117;SDS011;4594;50.994;7.126;2023-05-07T01:32:38;2.33;;;2.00;;
9117;SDS011;4594;50.994;7.126;2023-05-07T01:35:22;1.80;;;1.80;;
9117;SDS011;4594;50.994;7.126;2023-05-07T01:37:54;2.23;;;2.20;;
9117;SDS011;4594;50.994;7.126;2023-05-07T01:40:20;3.63;;;2.23;;
9117;SDS011;4594;50.994;7.126;2023-05-07T01:42:47;1.97;;;1.87;;
9117;SDS011;4594;50.994;7.126;2023-05-07T01:45:13;1.70;;;1.70;;
9117;SDS011;4594;50.994;7.126;2023-05-07T01:47:39;2.03;;;2.00;;
9117;SDS011;4594;50.994;7.126;2023-05-07T01:50:06;5.87;;;1.90;;
9117;SDS011;4594;50.994;7.126;2023-05-07T01:52:36;1.50;;;1.50;;
9117;SDS011;4594;50.994;7.126;2023-05-07T01:55:03;1.80;;;1.80;;
9117;SDS011;4594;50.994;7.126;2023-05-07T01:57:31;1.70;;;1.60;;
9117;SDS011;4594;50.994;7.126;2023-05-07T01:59:56;4.00;;;1.80;;
9117;SDS011;4594;50.994;7.126;2023-05-07T02:02:22;2.00;;;1.90;;
9117;SDS011;4594;50.994;7.126;2023-05-07T02:04:48;1.97;;;1.97;;
9117;SDS011;4594;50.994;7.126;2023-05-07T02:07:13;1.90;;;1.90;;
9117;SDS011;4594;50.994;7.126;2023-05-07T02:09:39;18.07;;;2.40;;
9117;SDS011;4594;50.994;7.126;2023-05-07T02:12:05;2.67;;;2.00;;
9117;SDS011;4594;50.994;7.126;2023-05-07T02:14:30;1.97;;;1.87;;
9117;SDS011;4594;50.994;7.126;2023-05-07T02:16:56;3.07;;;1.90;;
9117;SDS011;4594;50.994;7.126;2023-05-07T02:19:22;3.63;;;2.20;;
9117;SDS011;4594;50.994;7.126;2023-05-07T02:21:47;1.90;;;1.90;;
9117;SDS011;4594;50.994;7.126;2023-05-07T02:24:13;1.80;;;1.80;;
9117;SDS011;4594;50.994;7.126;2023-05-07T02:26:42;1.90;;;1.90;;
9117;SDS011;4594;50.994;7.126;2023-05-07T02:29:08;3.27;;;2.33;;
9117;SDS011;4594;50.994;7.126;2023-05-07T02:31:33;2.20;;;2.10;;
9117;SDS011;4594;50.994;7.126;2023-05-07T02:34:00;2.40;;;2.30;;
9117;SDS011;4594;50.994;7.126;2023-05-07T02:36:26;2.37;;;1.93;;
9117;SDS011;4594;50.994;7.126;2023-05-07T02:38:52;2.20;;;2.10;;
9117;SDS011;4594;50.994;7.126;2023-05-07T02:41:17;2.50;;;2.37;;
9117;SDS011;4594;50.994;7.126;2023-05-07T02:43:43;2.13;;;2.10;;
9117;SDS011;4594;50.994;7.126;2023-05-07T02:46:09;2.20;;;2.10;;
9117;SDS011;4594;50.994;7.126;2023-05-07T02:48:34;2.40;;;2.30;;
9117;SDS011;4594;50.994;7.126;2023-05-07T02:51:00;3.37;;;2.50;;
9117;SDS011;4594;50.994;7.126;2023-05-07T02:53:27;2.43;;;1.93;;
9117;SDS011;4594;50.994;7.126;2023-05-07T02:55:55;2.17;;;2.07;;
9117;SDS011;4594;50.994;7.126;2023-05-07T02:58:25;2.00;;;1.93;;
9117;SDS011;4594;50.994;7.126;2023-05-07T03:00:51;2.20;;;2.10;;
9117;SDS011;4594;50.994;7.126;2023-05-07T03:03:19;2.07;;;2.07;;
9117;SDS011;4594;50.994;7.126;2023-05-07T03:05:45;3.13;;;2.17;;
9117;SDS011;4594;50.994;7.126;2023-05-07T03:08:11;2.50;;;2.30;;
9117;SDS011;4594;50.994;7.126;2023-05-07T03:10:38;8.40;;;2.50;;
9117;SDS011;4594;50.994;7.126;2023-05-07T03:13:04;2.40;;;2.27;;
9117;SDS011;4594;50.994;7.126;2023-05-07T03:15:30;6.23;;;2.37;;
9117;SDS011;4594;50.994;7.126;2023-05-07T03:17:56;2.07;;;1.97;;
9117;SDS011;4594;50.994;7.126;2023-05-07T03:20:21;2.20;;;2.00;;
9117;SDS011;4594;50.994;7.126;2023-05-07T03:22:47;3.07;;;2.33;;
9117;SDS011;4594;50.994;7.126;2023-05-07T03:25:13;2.30;;;2.20;;
9117;SDS011;4594;50.994;7.126;2023-05-07T03:27:39;2.10;;;2.00;;
9117;SDS011;4594;50.994;7.126;2023-05-07T03:30:06;2.27;;;2.17;;
9117;SDS011;4594;50.994;7.126;2023-05-07T03:32:33;3.03;;;1.90;;
9117;SDS011;4594;50.994;7.126;2023-05-07T03:35:00;4.10;;;2.00;;
9117;SDS011;4594;50.994;7.126;2023-05-07T03:37:27;2.00;;;1.90;;
9117;SDS011;4594;50.994;7.126;2023-05-07T03:39:53;1.90;;;1.90;;
9117;SDS011;4594;50.994;7.126;2023-05-07T03:42:18;1.97;;;1.87;;
9117;SDS011;4594;50.994;7.126;2023-05-07T03:44:44;2.13;;;2.03;;
9117;SDS011;4594;50.994;7.126;2023-05-07T03:47:10;1.97;;;1.97;;
9117;SDS011;4594;50.994;7.126;2023-05-07T03:49:36;2.20;;;2.10;;
9117;SDS011;4594;50.994;7.126;2023-05-07T03:52:01;2.27;;;2.10;;
9117;SDS011;4594;50.994;7.126;2023-05-07T03:54:27;6.27;;;2.30;;
9117;SDS011;4594;50.994;7.126;2023-05-07T03:56:53;2.70;;;2.50;;
9117;SDS011;4594;50.994;7.126;2023-05-07T03:59:19;2.03;;;2.03;;
9117;SDS011;4594;50.994;7.126;2023-05-07T04:01:44;6.63;;;2.40;;
9117;SDS011;4594;50.994;7.126;2023-05-07T04:04:10;2.20;;;2.10;;
9117;SDS011;4594;50.994;7.126;2023-05-07T04:06:35;3.80;;;2.37;;
9117;SDS011;4594;50.994;7.126;2023-05-07T04:09:02;2.10;;;2.10;;
9117;SDS011;4594;50.994;7.126;2023-05-07T04:11:28;2.03;;;1.93;;
9117;SDS011;4594;50.994;7.126;2023-05-07T04:13:54;3.17;;;2.27;;
9117;SDS011;4594;50.994;7.126;2023-05-07T04:16:19;2.30;;;2.10;;
9117;SDS011;4594;50.994;7.126;2023-05-07T04:18:45;2.47;;;2.27;;
9117;SDS011;4594;50.994;7.126;2023-05-07T04:21:14;4.87;;;1.90;;
9117;SDS011;4594;50.994;7.126;2023-05-07T04:23:48;4.23;;;2.27;;
9117;SDS011;4594;50.994;7.126;2023-05-07T04:26:14;3.40;;;2.57;;
9117;SDS011;4594;50.994;7.126;2023-05-07T04:28:41;2.70;;;2.50;;
9117;SDS011;4594;50.994;7.126;2023-05-07T04:31:07;2.40;;;2.30;;
9117;SDS011;4594;50.994;7.126;2023-05-07T04:33:33;2.10;;;2.00;;
9117;SDS011;4594;50.994;7.126;2023-05-07T04:36:02;2.17;;;2.03;;
9117;SDS011;4594;50.994;7.126;2023-05-07T04:38:29;2.20;;;2.10;;
9117;SDS011;4594;50.994;7.126;2023-05-07T04:40:56;4.53;;;3.03;;
9117;SDS011;4594;50.994;7.126;2023-05-07T04:43:27;3.63;;;2.60;;
9117;SDS011;4594;50.994;7.126;2023-05-07T04:45:52;3.27;;;2.80;;
9117;SDS011;4594;50.994;7.126;2023-05-07T04:48:18;2.30;;;2.20;;
9117;SDS011;4594;50.994;7.126;2023-05-07T04:50:48;2.50;;;2.40;;
9117;SDS011;4594;50.994;7.126;2023-05-07T04:53:17;2.60;;;2.37;;
9117;SDS011;4594;50.994;7.126;2023-05-07T04:55:43;2.50;;;2.30;;
9117;SDS011;4594;50.994;7.126;2023-05-07T04:58:10;2.43;;;2.23;;
9117;SDS011;4594;50.994;7.126;2023-05-07T05:00:37;2.37;;;2.27;;
9117;SDS011;4594;50.994;7.126;2023-05-07T05:03:04;2.20;;;2.10;;
9117;SDS011;4594;50.994;7.126;2023-05-07T05:05:31;2.13;;;2.03;;
9117;SDS011;4594;50.994;7.126;2023-05-07T05:07:57;2.53;;;2.33;;
9117;SDS011;4594;50.994;7.126;2023-05-07T05:10:23;2.10;;;2.07;;
9117;SDS011;4594;50.994;7.126;2023-05-07T05:12:48;2.47;;;2.20;;
9117;SDS011;4594;50.994;7.126;2023-05-07T05:15:14;5.07;;;2.10;;
9117;SDS011;4594;50.994;7.126;2023-05-07T05:17:40;2.03;;;1.87;;
9117;SDS011;4594;50.994;7.126;2023-05-07T05:20:06;2.03;;;1.93;;
9117;SDS011;4594;50.994;7.126;2023-05-07T05:22:32;1.97;;;1.87;;
9117;SDS011;4594;50.994;7.126;2023-05-07T05:24:58;2.17;;;2.10;;
9117;SDS011;4594;50.994;7.126;2023-05-07T05:27:24;2.20;;;2.10;;
9117;SDS011;4594;50.994;7.126;2023-05-07T05:29:49;2.10;;;2.00;;
9117;SDS011;4594;50.994;7.126;2023-05-07T05:32:15;1.90;;;1.80;;
9117;SDS011;4594;50.994;7.126;2023-05-07T05:34:41;2.10;;;2.00;;
9117;SDS011;4594;50.994;7.126;2023-05-07T05:37:06;1.80;;;1.80;;
9117;SDS011;4594;50.994;7.126;2023-05-07T05:39:32;2.00;;;1.90;;
9117;SDS011;4594;50.994;7.126;2023-05-07T05:41:58;2.00;;;2.00;;
9117;SDS011;4594;50.994;7.126;2023-05-07T05:44:24;2.80;;;2.63;;
9117;SDS011;4594;50.994;7.126;2023-05-07T05:46:50;2.00;;;2.00;;
9117;SDS011;4594;50.994;7.126;2023-05-07T05:49:16;2.23;;;2.23;;
9117;SDS011;4594;50.994;7.126;2023-05-07T05:51:42;2.13;;;2.03;;
9117;SDS011;4594;50.994;7.126;2023-05-07T05:54:08;2.13;;;2.00;;
9117;SDS011;4594;50.994;7.126;2023-05-07T05:56:34;2.13;;;2.00;;
9117;SDS011;4594;50.994;7.126;2023-05-07T05:59:00;2.00;;;2.00;;
9117;SDS011;4594;50.994;7.126;2023-05-07T06:01:25;1.90;;;1.90;;
9117;SDS011;4594;50.994;7.126;2023-05-07T06:03:51;2.03;;;1.93;;
9117;SDS011;4594;50.994;7.126;2023-05-07T06:06:17;6.53;;;2.20;;
9117;SDS011;4594;50.994;7.126;2023-05-07T06:08:43;2.50;;;2.30;;
9117;SDS011;4594;50.994;7.126;2023-05-07T06:11:08;1.83;;;1.83;;
9117;SDS011;4594;50.994;7.126;2023-05-07T06:13:34;5.40;;;2.00;;
9117;SDS011;4594;50.994;7.126;2023-05-07T06:16:00;2.30;;;2.13;;
9117;SDS011;4594;50.994;7.126;2023-05-07T06:18:25;3.63;;;2.13;;
9117;SDS011;4594;50.994;7.126;2023-05-07T06:20:51;1.83;;;1.73;;
9117;SDS011;4594;50.994;7.126;2023-05-07T06:23:17;1.83;;;1.83;;
9117;SDS011;4594;50.994;7.126;2023-05-07T06:25:50;1.90;;;1.80;;
9117;SDS011;4594;50.994;7.126;2023-05-07T06:28:16;1.97;;;1.97;;
9117;SDS011;4594;50.994;7.126;2023-05-07T06:30:42;1.87;;;1.80;;
9117;SDS011;4594;50.994;7.126;2023-05-07T06:33:08;2.10;;;2.00;;
9117;SDS011;4594;50.994;7.126;2023-05-07T06:35:33;3.10;;;2.03;;
9117;SDS011;4594;50.994;7.126;2023-05-07T06:37:59;3.47;;;1.90;;
9117;SDS011;4594;50.994;7.126;2023-05-07T06:40:25;1.90;;;1.80;;
9117;SDS011;4594;50.994;7.126;2023-05-07T06:42:51;1.83;;;1.73;;
9117;SDS011;4594;50.994;7.126;2023-05-07T06:45:18;1.70;;;1.60;;
9117;SDS011;4594;50.994;7.126;2023-05-07T06:47:45;2.10;;;2.03;;
9117;SDS011;4594;50.994;7.126;2023-05-07T06:50:11;2.73;;;1.70;;
9117;SDS011;4594;50.994;7.126;2023-05-07T06:52:37;2.53;;;2.00;;
9117;SDS011;4594;50.994;7.126;2023-05-07T06:55:02;1.80;;;1.70;;
9117;SDS011;4594;50.994;7.126;2023-05-07T06:57:29;1.80;;;1.70;;
9117;SDS011;4594;50.994;7.126;2023-05-07T06:59:54;2.03;;;1.93;;
9117;SDS011;4594;50.994;7.126;2023-05-07T07:02:20;2.30;;;1.70;;
9117;SDS011;4594;50.994;7.126;2023-05-07T07:04:46;3.57;;;2.07;;
9117;SDS011;4594;50.994;7.126;2023-05-07T07:07:12;1.73;;;1.63;;
9117;SDS011;4594;50.994;7.126;2023-05-07T07:09:38;2.33;;;1.67;;
9117;SDS011;4594;50.994;7.126;2023-05-07T07:12:03;1.73;;;1.67;;
9117;SDS011;4594;50.994;7.126;2023-05-07T07:14:29;1.73;;;1.63;;
9117;SDS011;4594;50.994;7.126;2023-05-07T07:16:55;1.90;;;1.80;;
9117;SDS011;4594;50.994;7.126;2023-05-07T07:19:21;1.80;;;1.70;;
9117;SDS011;4594;50.994;7.126;2023-05-07T07:21:46;1.73;;;1.60;;
9117;SDS011;4594;50.994;7.126;2023-05-07T07:24:13;1.40;;;1.40;;
9117;SDS011;4594;50.994;7.126;2023-05-07T07:26:44;1.40;;;1.30;;
9117;SDS011;4594;50.994;7.126;2023-05-07T07:29:10;1.40;;;1.40;;
9117;SDS011;4594;50.994;7.126;2023-05-07T07:31:35;1.67;;;1.50;;
9117;SDS011;4594;50.994;7.126;2023-05-07T07:34:01;2.33;;;1.17;;
9117;SDS011;4594;50.994;7.126;2023-05-07T07:36:27;1.40;;;1.30;;
9117;SDS011;4594;50.994;7.126;2023-05-07T07:38:53;2.97;;;1.13;;
9117;SDS011;4594;50.994;7.126;2023-05-07T07:41:19;1.10;;;1.10;;
9117;SDS011;4594;50.994;7.126;2023-05-07T07:43:45;1.00;;;1.00;;
9117;SDS011;4594;50.994;7.126;2023-05-07T07:46:11;2.27;;;1.03;;
9117;SDS011;4594;50.994;7.126;2023-05-07T07:48:37;1.50;;;1.30;;
9117;SDS011;4594;50.994;7.126;2023-05-07T07:51:03;1.27;;;1.00;;
9117;SDS011;4594;50.994;7.126;2023-05-07T07:53:28;2.00;;;1.10;;
9117;SDS011;4594;50.994;7.126;2023-05-07T07:55:55;2.30;;;1.20;;
9117;SDS011;4594;50.994;7.126;2023-05-07T07:58:21;1.37;;;1.23;;
9117;SDS011;4594;50.994;7.126;2023-05-07T08:00:47;1.17;;;1.07;;
9117;SDS011;4594;50.994;7.126;2023-05-07T08:03:13;0.80;;;0.80;;
9117;SDS011;4594;50.994;7.126;2023-05-07T08:05:41;1.00;;;1.00;;
9117;SDS011;4594;50.994;7.126;2023-05-07T08:08:07;1.23;;;1.20;;
9117;SDS011;4594;50.994;7.126;2023-05-07T08:10:33;2.97;;;1.10;;
9117;SDS011;4594;50.994;7.126;2023-05-07T08:12:59;1.13;;;1.13;;
9117;SDS011;4594;50.994;7.126;2023-05-07T08:15:26;0.80;;;0.80;;
9117;SDS011;4594;50.994;7.126;2023-05-07T08:17:52;0.90;;;0.90;;
9117;SDS011;4594;50.994;7.126;2023-05-07T08:20:18;1.00;;;1.00;;
9117;SDS011;4594;50.994;7.126;2023-05-07T08:22:43;2.50;;;1.20;;
9117;SDS011;4594;50.994;7.126;2023-05-07T08:25:09;1.13;;;1.03;;
9117;SDS011;4594;50.994;7.126;2023-05-07T08:27:35;1.40;;;1.30;;
9117;SDS011;4594;50.994;7.126;2023-05-07T08:30:01;1.20;;;1.20;;
9117;SDS011;4594;50.994;7.126;2023-05-07T08:32:27;1.50;;;1.20;;
9117;SDS011;4594;50.994;7.126;2023-05-07T08:34:53;1.10;;;1.00;;
9117;SDS011;4594;50.994;7.126;2023-05-07T08:37:18;1.00;;;1.00;;
9117;SDS011;4594;50.994;7.126;2023-05-07T08:39:44;1.03;;;1.03;;
9117;SDS011;4594;50.994;7.126;2023-05-07T08:42:10;1.67;;;1.10;;
9117;SDS011;4594;50.994;7.126;2023-05-07T08:44:40;0.90;;;0.90;;
9117;SDS011;4594;50.994;7.126;2023-05-07T08:47:12;1.00;;;1.00;;
9117;SDS011;4594;50.994;7.126;2023-05-07T08:49:37;1.57;;;1.03;;
9117;SDS011;4594;50.994;7.126;2023-05-07T08:52:03;0.90;;;0.90;;
9117;SDS011;4594;50.994;7.126;2023-05-07T08:54:29;1.00;;;1.00;;
9117;SDS011;4594;50.994;7.126;2023-05-07T08:56:56;1.23;;;1.23;;
9117;SDS011;4594;50.994;7.126;2023-05-07T08:59:22;1.07;;;1.07;;
9117;SDS011;4594;50.994;7.126;2023-05-07T09:01:48;0.83;;;0.83;;
9117;SDS011;4594;50.994;7.126;2023-05-07T09:04:14;1.10;;;0.87;;
9117;SDS011;4594;50.994;7.126;2023-05-07T09:06:40;0.80;;;0.80;;
9117;SDS011;4594;50.994;7.126;2023-05-07T09:09:07;0.67;;;0.67;;
9117;SDS011;4594;50.994;7.126;2023-05-07T09:11:33;0.60;;;0.60;;
9117;SDS011;4594;50.994;7.126;2023-05-07T09:13:59;3.27;;;0.70;;
9117;SDS011;4594;50.994;7.126;2023-05-07T09:16:26;1.77;;;0.70;;
9117;SDS011;4594;50.994;7.126;2023-05-07T09:18:55;0.77;;;0.77;;
9117;SDS011;4594;50.994;7.126;2023-05-07T09:21:23;0.80;;;0.80;;
9117;SDS011;4594;50.994;7.126;2023-05-07T09:23:53;0.80;;;0.77;;
9117;SDS011;4594;50.994;7.126;2023-05-07T09:26:23;0.60;;;0.60;;
9117;SDS011;4594;50.994;7.126;2023-05-07T09:28:50;0.77;;;0.70;;
9117;SDS011;4594;50.994;7.126;2023-05-07T09:31:16;1.00;;;1.00;;
9117;SDS011;4594;50.994;7.126;2023-05-07T09:33:42;3.83;;;0.97;;
9117;SDS011;4594;50.994;7.126;2023-05-07T09:36:08;0.87;;;0.80;;
9117;SDS011;4594;50.994;7.126;2023-05-07T09:38:35;1.43;;;0.90;;
9117;SDS011;4594;50.994;7.126;2023-05-07T09:41:03;1.13;;;0.73;;
9117;SDS011;4594;50.994;7.126;2023-05-07T09:43:35;0.70;;;0.70;;
9117;SDS011;4594;50.994;7.126;2023-05-07T09:46:03;0.80;;;0.80;;
9117;SDS011;4594;50.994;7.126;2023-05-07T09:48:40;1.53;;;0.80;;
9117;SDS011;4594;50.994;7.126;2023-05-07T09:51:28;0.70;;;0.70;;
9117;SDS011;4594;50.994;7.126;2023-05-07T09:53:58;2.00;;;0.90;;
9117;SDS011;4594;50.994;7.126;2023-05-07T09:56:29;0.97;;;0.83;;
9117;SDS011;4594;50.994;7.126;2023-05-07T09:58:56;0.70;;;0.70;;
9117;SDS011;4594;50.994;7.126;2023-05-07T10:01:25;0.97;;;0.90;;
9117;SDS011;4594;50.994;7.126;2023-05-07T10:03:52;1.00;;;0.80;;
9117;SDS011;4594;50.994;7.126;2023-05-07T10:06:23;2.10;;;0.90;;
9117;SDS011;4594;50.994;7.126;2023-05-07T10:08:53;0.80;;;0.80;;
9117;SDS011;4594;50.994;7.126;2023-05-07T10:11:21;0.70;;;0.70;;
9117;SDS011;4594;50.994;7.126;2023-05-07T10:13:48;0.87;;;0.87;;
9117;SDS011;4594;50.994;7.126;2023-05-07T10:16:14;1.57;;;0.70;;
9117;SDS011;4594;50.994;7.126;2023-05-07T10:18:40;1.80;;;0.70;;
9117;SDS011;4594;50.994;7.126;2023-05-07T10:21:19;0.50;;;0.50;;
9117;SDS011;4594;50.994;7.126;2023-05-07T10:23:49;0.80;;;0.80;;
9117;SDS011;4594;50.994;7.126;2023-05-07T10:26:25;0.90;;;0.90;;
9117;SDS011;4594;50.994;7.126;2023-05-07T10:28:56;1.40;;;0.83;;
9117;SDS011;4594;50.994;7.126;2023-05-07T10:31:41;0.60;;;0.60;;
9117;SDS011;4594;50.994;7.126;2023-05-07T10:34:32;2.30;;;0.70;;
9117;SDS011;4594;50.994;7.126;2023-05-07T10:37:05;1.23;;;0.80;;
9117;SDS011;4594;50.994;7.126;2023-05-07T10:39:32;0.70;;;0.70;;
9117;SDS011;4594;50.994;7.126;2023-05-07T10:42:12;0.73;;;0.73;;
9117;SDS011;4594;50.994;7.126;2023-05-07T10:44:39;0.90;;;0.90;;
9117;SDS011;4594;50.994;7.126;2023-05-07T10:47:07;0.70;;;0.70;;
9117;SDS011;4594;50.994;7.126;2023-05-07T10:52:19;4.07;;;1.00;;
9117;SDS011;4594;50.994;7.126;2023-05-07T10:55:18;0.93;;;0.93;;
9117;SDS011;4594;50.994;7.126;2023-05-07T10:57:42;0.70;;;0.70;;
9117;SDS011;4594;50.994;7.126;2023-05-07T11:05:26;1.27;;;0.80;;
9117;SDS011;4594;50.994;7.126;2023-05-07T11:07:58;0.80;;;0.80;;
9117;SDS011;4594;50.994;7.126;2023-05-07T11:16:22;0.90;;;0.90;;
9117;SDS011;4594;50.994;7.126;2023-05-07T11:18:50;0.80;;;0.80;;
9117;SDS011;4594;50.994;7.126;2023-05-07T11:21:33;1.13;;;0.90;;
9117;SDS011;4594;50.994;7.126;2023-05-07T11:24:02;0.80;;;0.80;;
9117;SDS011;4594;50.994;7.126;2023-05-07T11:26:31;1.13;;;0.80;;
9117;SDS011;4594;50.994;7.126;2023-05-07T11:29:21;0.97;;;0.80;;
9117;SDS011;4594;50.994;7.126;2023-05-07T11:31:51;0.67;;;0.67;;
9117;SDS011;4594;50.994;7.126;2023-05-07T11:34:20;0.70;;;0.70;;
9117;SDS011;4594;50.994;7.126;2023-05-07T11:36:51;1.80;;;0.70;;
9117;SDS011;4594;50.994;7.126;2023-05-07T11:39:30;1.00;;;0.83;;
9117;SDS011;4594;50.994;7.126;2023-05-07T11:41:58;0.93;;;0.80;;
9117;SDS011;4594;50.994;7.126;2023-05-07T11:44:40;4.43;;;1.10;;
9117;SDS011;4594;50.994;7.126;2023-05-07T11:47:11;1.10;;;0.93;;
9117;SDS011;4594;50.994;7.126;2023-05-07T11:49:43;1.30;;;1.20;;
9117;SDS011;4594;50.994;7.126;2023-05-07T11:52:09;0.90;;;0.90;;
9117;SDS011;4594;50.994;7.126;2023-05-07T11:54:35;0.73;;;0.73;;
9117;SDS011;4594;50.994;7.126;2023-05-07T11:57:02;0.90;;;0.90;;
9117;SDS011;4594;50.994;7.126;2023-05-07T11:59:28;0.80;;;0.80;;
9117;SDS011;4594;50.994;7.126;2023-05-07T12:01:56;1.13;;;1.03;;
9117;SDS011;4594;50.994;7.126;2023-05-07T12:04:23;1.00;;;1.00;;
9117;SDS011;4594;50.994;7.126;2023-05-07T12:06:53;3.20;;;1.00;;
9117;SDS011;4594;50.994;7.126;2023-05-07T12:09:20;0.90;;;0.90;;
9117;SDS011;4594;50.994;7.126;2023-05-07T12:11:46;3.93;;;0.90;;
9117;SDS011;4594;50.994;7.126;2023-05-07T12:14:12;1.10;;;1.10;;
9117;SDS011;4594;50.994;7.126;2023-05-07T12:16:40;7.00;;;1.03;;
9117;SDS011;4594;50.994;7.126;2023-05-07T12:19:07;1.37;;;1.20;;
9117;SDS011;4594;50.994;7.126;2023-05-07T12:21:37;0.90;;;0.90;;
9117;SDS011;4594;50.994;7.126;2023-05-07T12:24:03;1.77;;;0.97;;
9117;SDS011;4594;50.994;7.126;2023-05-07T12:26:30;1.10;;;1.10;;
9117;SDS011;4594;50.994;7.126;2023-05-07T12:28:59;0.90;;;0.90;;
9117;SDS011;4594;50.994;7.126;2023-05-07T12:31:28;1.47;;;1.10;;
9117;SDS011;4594;50.994;7.126;2023-05-07T12:33:53;0.83;;;0.83;;
9117;SDS011;4594;50.994;7.126;2023-05-07T12:36:19;1.00;;;1.00;;
9117;SDS011;4594;50.994;7.126;2023-05-07T12:38:46;1.03;;;0.80;;
9117;SDS011;4594;50.994;7.126;2023-05-07T12:41:15;1.13;;;1.10;;
9117;SDS011;4594;50.994;7.126;2023-05-07T12:43:43;1.00;;;1.00;;
9117;SDS011;4594;50.994;7.126;2023-05-07T12:46:10;0.90;;;0.90;;
9117;SDS011;4594;50.994;7.126;2023-05-07T12:48:38;2.00;;;1.00;;
9117;SDS011;4594;50.994;7.126;2023-05-07T12:51:11;0.90;;;0.90;;
9117;SDS011;4594;50.994;7.126;2023-05-07T12:53:41;1.10;;;1.10;;
9117;SDS011;4594;50.994;7.126;2023-05-07T12:56:08;1.00;;;1.00;;
9117;SDS011;4594;50.994;7.126;2023-05-07T12:58:34;1.50;;;1.00;;
9117;SDS011;4594;50.994;7.126;2023-05-07T13:01:01;1.33;;;1.00;;
9117;SDS011;4594;50.994;7.126;2023-05-07T13:03:32;1.37;;;1.00;;
9117;SDS011;4594;50.994;7.126;2023-05-07T13:06:05;0.97;;;0.97;;
9117;SDS011;4594;50.994;7.126;2023-05-07T13:08:38;1.33;;;1.17;;
9117;SDS011;4594;50.994;7.126;2023-05-07T13:11:08;0.90;;;0.90;;
9117;SDS011;4594;50.994;7.126;2023-05-07T13:13:36;5.30;;;1.27;;
9117;SDS011;4594;50.994;7.126;2023-05-07T13:16:04;1.00;;;1.00;;
9117;SDS011;4594;50.994;7.126;2023-05-07T13:18:31;1.47;;;0.83;;
9117;SDS011;4594;50.994;7.126;2023-05-07T13:20:58;0.90;;;0.90;;
9117;SDS011;4594;50.994;7.126;2023-05-07T13:23:25;1.10;;;1.10;;
9117;SDS011;4594;50.994;7.126;2023-05-07T13:25:52;1.10;;;1.10;;
9117;SDS011;4594;50.994;7.126;2023-05-07T13:28:21;1.57;;;1.43;;
9117;SDS011;4594;50.994;7.126;2023-05-07T13:30:51;1.47;;;1.00;;
9117;SDS011;4594;50.994;7.126;2023-05-07T13:33:19;1.00;;;1.00;;
9117;SDS011;4594;50.994;7.126;2023-05-07T13:35:45;1.10;;;1.10;;
9117;SDS011;4594;50.994;7.126;2023-05-07T13:38:10;1.00;;;1.00;;
9117;SDS011;4594;50.994;7.126;2023-05-07T13:40:36;0.93;;;0.93;;
9117;SDS011;4594;50.994;7.126;2023-05-07T13:43:02;1.17;;;1.17;;
9117;SDS011;4594;50.994;7.126;2023-05-07T13:45:28;0.90;;;0.90;;
9117;SDS011;4594;50.994;7.126;2023-05-07T13:47:55;1.03;;;1.03;;
9117;SDS011;4594;50.994;7.126;2023-05-07T13:50:21;1.07;;;1.07;;
9117;SDS011;4594;50.994;7.126;2023-05-07T13:52:47;0.90;;;0.90;;
9117;SDS011;4594;50.994;7.126;2023-05-07T13:55:18;1.10;;;1.10;;
9117;SDS011;4594;50.994;7.126;2023-05-07T13:57:46;1.00;;;1.00;;
9117;SDS011;4594;50.994;7.126;2023-05-07T14:00:12;1.00;;;1.00;;
9117;SDS011;4594;50.994;7.126;2023-05-07T14:02:39;1.00;;;1.00;;
9117;SDS011;4594;50.994;7.126;2023-05-07T14:05:06;1.30;;;1.30;;
9117;SDS011;4594;50.994;7.126;2023-05-07T14:07:32;0.90;;;0.90;;
9117;SDS011;4594;50.994;7.126;2023-05-07T14:09:58;4.67;;;1.10;;
9117;SDS011;4594;50.994;7.126;2023-05-07T14:12:24;1.10;;;1.10;;
9117;SDS011;4594;50.994;7.126;2023-05-07T14:14:50;1.47;;;1.27;;
9117;SDS011;4594;50.994;7.126;2023-05-07T14:17:16;1.00;;;1.00;;
9117;SDS011;4594;50.994;7.126;2023-05-07T14:19:43;1.30;;;1.30;;
9117;SDS011;4594;50.994;7.126;2023-05-07T14:22:09;1.10;;;1.10;;
9117;SDS011;4594;50.994;7.126;2023-05-07T14:24:34;9.80;;;3.30;;
9117;SDS011;4594;50.994;7.126;2023-05-07T14:27:00;15.17;;;6.93;;
9117;SDS011;4594;50.994;7.126;2023-05-07T14:29:26;14.80;;;7.30;;
9117;SDS011;4594;50.994;7.126;2023-05-07T14:31:52;19.03;;;4.90;;
9117;SDS011;4594;50.994;7.126;2023-05-07T14:34:18;8.07;;;3.53;;
9117;SDS011;4594;50.994;7.126;2023-05-07T14:36:44;9.23;;;3.10;;
9117;SDS011;4594;50.994;7.126;2023-05-07T14:39:09;4.47;;;2.50;;
9117;SDS011;4594;50.994;7.126;2023-05-07T14:41:35;3.97;;;1.93;;
9117;SDS011;4594;50.994;7.126;2023-05-07T14:44:01;10.93;;;2.90;;
9117;SDS011;4594;50.994;7.126;2023-05-07T14:46:28;4.80;;;2.17;;
9117;SDS011;4594;50.994;7.126;2023-05-07T14:48:55;3.93;;;2.00;;
9117;SDS011;4594;50.994;7.126;2023-05-07T14:51:22;1.53;;;1.50;;
9117;SDS011;4594;50.994;7.126;2023-05-07T14:53:49;1.57;;;1.47;;
9117;SDS011;4594;50.994;7.126;2023-05-07T14:56:15;1.70;;;1.60;;
9117;SDS011;4594;50.994;7.126;2023-05-07T14:58:41;2.17;;;1.50;;
9117;SDS011;4594;50.994;7.126;2023-05-07T15:01:08;1.53;;;1.47;;
9117;SDS011;4594;50.994;7.126;2023-05-07T15:03:34;1.67;;;1.53;;
9117;SDS011;4594;50.994;7.126;2023-05-07T15:06:01;2.13;;;2.03;;
9117;SDS011;4594;50.994;7.126;2023-05-07T15:08:27;9.53;;;2.37;;
9117;SDS011;4594;50.994;7.126;2023-05-07T15:10:53;2.03;;;1.93;;
9117;SDS011;4594;50.994;7.126;2023-05-07T15:13:20;2.13;;;2.03;;
9117;SDS011;4594;50.994;7.126;2023-05-07T15:15:46;2.97;;;2.10;;
9117;SDS011;4594;50.994;7.126;2023-05-07T15:18:12;2.50;;;2.30;;
9117;SDS011;4594;50.994;7.126;2023-05-07T15:20:39;2.63;;;2.53;;
9117;SDS011;4594;50.994;7.126;2023-05-07T15:23:06;2.50;;;2.40;;
9117;SDS011;4594;50.994;7.126;2023-05-07T15:25:37;2.30;;;2.20;;
9117;SDS011;4594;50.994;7.126;2023-05-07T15:28:02;3.07;;;2.50;;
9117;SDS011;4594;50.994;7.126;2023-05-07T15:30:28;3.20;;;2.30;;